Time;durP1;ratioP1;P1;durP2;ratioP2;P2;SDS_P1;SDS_P2;PMS_P1;PMS_P2;Temp;Humidity;BMP_temperature;BMP_pressure;BME280_temperature;BME280_humidity;BME280_pressure;Samples;Min_cycle;Max_cycle;Signal;HPM_P1;HPM_P2
2022/11/25 00:01:33;;;;;;;4.82;3.25;;;;;;;3.71;100.00;99864.91;6218140;28;20558;-76
2022/11/25 00:04:35;;;;;;;8.15;3.83;;;;;;;3.71;100.00;99872.66;6219652;28;20372;-75
2022/11/25 00:07:36;;;;;;;9.45;3.83;;;;;;;3.69;100.00;99881.34;6219012;28;20045;-76
2022/11/25 00:10:37;;;;;;;6.22;3.63;;;;;;;3.65;100.00;99885.78;6218781;28;20073;-75
2022/11/25 00:13:38;;;;;;;7.85;3.28;;;;;;;3.68;100.00;99883.06;6201694;28;20054;-75
2022/11/25 00:16:39;;;;;;;9.00;3.67;;;;;;;3.72;100.00;99888.97;6218094;28;20053;-75
2022/11/25 00:19:40;;;;;;;7.18;3.08;;;;;;;3.61;100.00;99874.72;6217901;28;20364;-75
2022/11/25 00:22:41;;;;;;;4.95;3.05;;;;;;;3.53;100.00;99888.78;6219052;28;20042;-75
2022/11/25 00:25:41;;;;;;;7.13;3.10;;;;;;;3.52;100.00;99887.09;6218842;28;20117;-75
2022/11/25 00:28:44;;;;;;;8.25;3.40;;;;;;;3.48;100.00;99893.25;6217791;28;20044;-75
2022/11/25 00:31:44;;;;;;;4.88;3.53;;;;;;;3.49;100.00;99893.19;6219010;28;20103;-75
2022/11/25 00:34:45;;;;;;;9.35;3.90;;;;;;;3.65;100.00;99897.84;6217643;28;20038;-74
2022/11/25 00:37:46;;;;;;;8.25;2.78;;;;;;;3.61;100.00;99897.09;6217868;28;20041;-75
2022/11/25 00:44:34;;;;;;;6.15;2.90;;;;;;;3.53;100.00;99906.84;6201030;28;20050;-75
2022/11/25 00:44:36;;;;;;;5.78;3.03;;;;;;;3.50;100.00;99901.78;6218676;28;20038;-75
2022/11/25 00:47:36;;;;;;;7.13;3.47;;;;;;;3.41;100.00;99906.34;6218774;28;20064;-74
2022/11/25 00:50:37;;;;;;;4.88;2.67;;;;;;;3.40;100.00;99903.84;6217585;28;20595;-78
2022/11/25 00:53:38;;;;;;;5.68;3.17;;;;;;;3.43;100.00;99903.72;6217403;28;20132;-78
2022/11/25 00:56:39;;;;;;;4.93;2.97;;;;;;;3.48;100.00;99914.75;6217505;28;20046;-75
2022/11/25 00:59:40;;;;;;;5.55;3.17;;;;;;;3.49;100.00;99918.16;6217154;28;20050;-75
2022/11/25 01:02:41;;;;;;;5.80;3.00;;;;;;;3.49;100.00;99915.56;6218446;28;20477;-75
2022/11/25 01:05:42;;;;;;;6.85;3.63;;;;;;;3.34;100.00;99916.94;6218275;28;20101;-75
2022/11/25 01:08:43;;;;;;;8.10;3.13;;;;;;;3.45;100.00;99919.16;6217151;28;20041;-76
2022/11/25 01:11:43;;;;;;;5.05;3.60;;;;;;;3.48;100.00;99916.47;6218245;28;20114;-75
2022/11/25 01:14:44;;;;;;;4.32;3.10;;;;;;;3.48;100.00;99924.19;6216980;28;20489;-78
2022/11/25 01:17:45;;;;;;;5.70;3.05;;;;;;;3.39;100.00;99926.19;6200763;28;20054;-78
2022/11/25 01:20:46;;;;;;;4.93;3.03;;;;;;;3.23;100.00;99928.47;6220750;28;20049;-78
2022/11/25 01:23:47;;;;;;;6.28;3.53;;;;;;;3.48;100.00;99935.38;6222453;28;20513;-78
2022/11/25 01:26:48;;;;;;;5.25;3.25;;;;;;;3.43;100.00;99935.50;6221328;28;20041;-77
2022/11/25 01:29:49;;;;;;;7.20;3.47;;;;;;;3.50;100.00;99931.00;6221371;28;20053;-75
2022/11/25 01:32:50;;;;;;;9.05;3.30;;;;;;;3.59;100.00;99922.09;6221151;28;20042;-75
2022/11/25 01:35:50;;;;;;;4.22;2.78;;;;;;;3.62;100.00;99940.06;6221076;28;20062;-76
2022/11/25 01:38:54;;;;;;;9.82;3.83;;;;;;;3.53;100.00;99933.47;6220865;28;20513;-75
2022/11/25 01:41:54;;;;;;;9.30;4.25;;;;;;;3.59;100.00;99930.69;6222058;28;20041;-75
2022/11/25 01:45:34;;;;;;;6.90;3.95;;;;;;;3.68;100.00;99941.59;6221919;28;20038;-75
2022/11/25 01:48:43;;;;;;;7.78;3.38;;;;;;;3.60;100.00;99937.53;6204326;28;20118;-75
2022/11/25 01:52:01;;;;;;;8.70;4.18;;;;;;;3.61;100.00;99935.81;6220681;28;20486;-75
2022/11/25 01:55:04;;;;;;;4.85;3.45;;;;;;;3.53;100.00;99942.97;6220789;28;20483;-75
2022/11/25 01:58:11;;;;;;;4.75;3.45;;;;;;;3.64;100.00;99938.25;6220769;28;20068;-75
2022/11/25 02:01:14;;;;;;;5.10;2.53;;;;;;;3.56;100.00;99951.44;6221624;28;20554;-75
2022/11/25 02:04:18;;;;;;;5.47;3.08;;;;;;;3.60;100.00;99940.13;6221770;28;20091;-78
2022/11/25 02:07:35;;;;;;;8.43;3.70;;;;;;;3.62;100.00;99955.53;6221726;28;20042;-78
2022/11/25 02:10:37;;;;;;;8.85;4.00;;;;;;;3.60;100.00;99947.00;6221602;28;20069;-77
2022/11/25 02:13:38;;;;;;;6.47;3.47;;;;;;;3.46;100.00;99946.63;6221559;28;20042;-75
2022/11/25 02:16:39;;;;;;;7.05;4.35;;;;;;;3.55;100.00;99951.50;6221372;28;20509;-75
2022/11/25 02:19:48;;;;;;;8.35;3.97;;;;;;;3.60;100.00;99965.94;6220336;28;20042;-76
2022/11/25 02:23:17;;;;;;;9.68;4.18;;;;;;;3.53;100.00;99963.59;6221727;28;20125;-75
2022/11/25 02:26:18;;;;;;;6.72;3.83;;;;;;;3.55;100.00;99970.38;6204471;28;20056;-75
2022/11/25 02:29:19;;;;;;;7.50;4.00;;;;;;;3.48;100.00;99968.91;6222022;28;20052;-75
2022/11/25 02:32:21;;;;;;;6.50;3.65;;;;;;;3.50;100.00;99974.00;6220279;28;20494;-75
2022/11/25 02:35:25;;;;;;;;;;;;;;;3.38;100.00;99973.53;6221331;28;20046;-75
2022/11/25 02:38:39;;;;;;;3.10;2.30;;;;;;;3.43;100.00;99981.09;6221924;28;19925;-75
2022/11/25 02:41:44;;;;;;;8.30;3.53;;;;;;;3.46;100.00;99982.75;6220591;28;20125;-75
2022/11/25 02:44:47;;;;;;;5.57;3.38;;;;;;;3.42;100.00;99982.84;6221668;28;20057;-75
2022/11/25 02:47:47;;;;;;;3.97;2.95;;;;;;;3.32;100.00;99972.88;6220470;28;20050;-75
2022/11/25 02:50:48;;;;;;;7.47;4.05;;;;;;;3.37;100.00;99987.31;6221675;28;20123;-75
2022/11/25 02:53:50;;;;;;;4.93;3.08;;;;;;;3.14;100.00;100000.94;6221688;28;20533;-75
2022/11/25 02:56:50;;;;;;;3.80;3.03;;;;;;;3.31;100.00;99995.25;6221523;28;20073;-75
2022/11/25 02:59:51;;;;;;;5.25;2.80;;;;;;;3.33;100.00;99992.63;6221394;28;20511;-75
2022/11/25 03:02:53;;;;;;;6.28;2.92;;;;;;;3.17;100.00;100000.00;6220132;28;20092;-75
2022/11/25 03:05:54;;;;;;;7.30;4.03;;;;;;;3.24;100.00;100006.66;6219626;28;20559;-75
2022/11/25 03:08:55;;;;;;;4.93;3.38;;;;;;;3.18;100.00;100014.59;6219395;28;20477;-75
2022/11/25 03:15:16;;;;;;;6.20;3.67;;;;;;;3.08;100.00;100006.28;6221319;28;20133;-75
2022/11/25 03:18:16;;;;;;;6.72;3.08;;;;;;;3.06;100.00;100015.78;6220030;28;20046;-75
2022/11/25 03:21:17;;;;;;;3.88;2.38;;;;;;;3.08;100.00;100010.59;6221145;28;20044;-75
2022/11/25 03:24:18;;;;;;;2.22;1.95;;;;;;;3.16;100.00;100018.94;6219923;28;20042;-75
2022/11/25 03:27:21;;;;;;;3.90;2.20;;;;;;;3.00;100.00;100029.72;6219991;28;20050;-77
2022/11/25 03:30:25;;;;;;;4.55;2.83;;;;;;;3.07;100.00;100025.22;6220150;28;20121;-77
2022/11/25 03:33:26;;;;;;;5.35;3.28;;;;;;;3.09;100.00;100027.75;6220985;28;20042;-78
2022/11/25 03:36:26;;;;;;;4.40;2.92;;;;;;;3.14;100.00;100044.75;6219742;28;20600;-77
2022/11/25 03:39:27;;;;;;;3.83;2.42;;;;;;;3.05;100.00;100042.47;6221007;28;20057;-77
2022/11/25 03:42:28;;;;;;;4.40;2.22;;;;;;;3.07;100.00;100047.56;6218965;28;20049;-75
2022/11/25 03:45:28;;;;;;;6.43;2.42;;;;;;;3.02;100.00;100051.13;6219677;28;20110;-75
2022/11/25 03:48:29;;;;;;;4.40;3.05;;;;;;;3.05;100.00;100057.94;6219701;28;20068;-77
2022/11/25 03:51:30;;;;;;;6.97;3.33;;;;;;;2.98;100.00;100056.44;6218688;28;20053;-77
2022/11/25 03:54:31;;;;;;;3.95;2.60;;;;;;;2.99;100.00;100058.13;6218625;28;20121;-77
2022/11/25 03:57:32;;;;;;;4.55;2.67;;;;;;;2.96;100.00;100060.78;6218508;28;20126;-77
2022/11/25 04:00:32;;;;;;;5.38;2.90;;;;;;;2.86;100.00;100060.19;6219302;28;20413;-77
2022/11/25 04:03:33;;;;;;;4.53;2.97;;;;;;;2.89;100.00;100064.44;6219550;28;20042;-77
2022/11/25 04:06:34;;;;;;;4.22;2.50;;;;;;;2.83;100.00;100066.28;6218298;28;20121;-75
2022/11/25 04:09:35;;;;;;;4.43;2.40;;;;;;;2.81;100.00;100062.09;6218239;28;20038;-75
2022/11/25 04:12:45;;;;;;;4.20;2.38;;;;;;;2.80;100.00;100073.25;6218147;28;20045;-75
2022/11/25 04:15:48;;;;;;;4.18;2.22;;;;;;;2.91;100.00;100078.13;6218073;28;20049;-75
2022/11/25 04:18:49;;;;;;;3.90;2.30;;;;;;;2.89;100.00;100067.84;6218328;28;20087;-75
2022/11/25 04:21:50;;;;;;;2.58;1.80;;;;;;;2.91;100.00;100083.28;6219153;28;20417;-75
2022/11/25 04:24:50;;;;;;;3.00;2.08;;;;;;;2.85;100.00;100086.88;6217981;28;20073;-77
2022/11/25 04:27:51;;;;;;;4.15;2.17;;;;;;;2.88;100.00;100085.94;6217608;28;20050;-78
2022/11/25 04:30:52;;;;;;;4.88;2.83;;;;;;;2.89;100.00;100090.22;6217830;28;20519;-75
2022/11/25 04:33:53;;;;;;;5.57;3.28;;;;;;;2.89;100.00;100096.22;6217778;28;20049;-75
2022/11/25 04:36:53;;;;;;;3.22;2.65;;;;;;;2.97;100.00;100093.41;6217605;28;20046;-75
2022/11/25 04:39:54;;;;;;;4.80;3.05;;;;;;;2.96;100.00;100087.41;6217612;28;20077;-75
2022/11/25 04:42:55;;;;;;;6.70;3.28;;;;;;;2.96;100.00;100091.72;6218686;28;20046;-75
2022/11/25 04:45:56;;;;;;;4.47;2.63;;;;;;;2.99;100.00;100100.22;6218665;28;20125;-76
2022/11/25 04:48:57;;;;;;;4.75;2.28;;;;;;;2.95;100.00;100098.59;6218551;28;20489;-77
2022/11/25 04:51:57;;;;;;;4.22;2.15;;;;;;;2.89;100.00;100101.38;6218786;28;20038;-75
2022/11/25 04:54:58;;;;;;;4.38;2.50;;;;;;;2.79;100.00;100097.38;6220441;28;20053;-77
2022/11/25 04:57:59;;;;;;;3.35;1.85;;;;;;;2.83;100.00;100110.09;6225552;28;20060;-77
2022/11/25 05:01:00;;;;;;;4.05;2.15;;;;;;;2.71;100.00;100107.88;6208700;28;20520;-77
2022/11/25 05:04:01;;;;;;;5.72;2.72;;;;;;;2.70;100.00;100115.63;6225458;28;20064;-77
2022/11/25 05:07:02;;;;;;;4.80;2.70;;;;;;;2.59;100.00;100103.94;6208877;28;20057;-77
2022/11/25 05:10:03;;;;;;;5.15;2.85;;;;;;;2.59;100.00;100123.66;6225408;28;20045;-77
2022/11/25 05:13:04;;;;;;;4.25;2.97;;;;;;;2.54;100.00;100128.13;6226545;28;20470;-77
2022/11/25 05:16:06;;;;;;;5.32;2.92;;;;;;;2.43;100.00;100120.69;6208739;28;20067;-77
2022/11/25 05:19:07;;;;;;;4.38;3.17;;;;;;;2.36;100.00;100134.59;6223519;28;20478;-77
2022/11/25 05:22:15;;;;;;;6.38;3.28;;;;;;;2.27;100.00;100140.81;6224843;28;20098;-77
2022/11/25 05:25:15;;;;;;;5.03;3.22;;;;;;;2.16;100.00;100141.09;6226220;28;20069;-77
2022/11/25 05:28:16;;;;;;;5.13;2.55;;;;;;;2.08;100.00;100145.59;6226049;28;20046;-75
2022/11/25 05:31:17;;;;;;;5.45;3.25;;;;;;;1.95;100.00;100134.72;6224946;28;20042;-77
2022/11/25 05:34:18;;;;;;;3.95;2.30;;;;;;;2.06;100.00;100149.06;6224776;28;20069;-75
2022/11/25 05:37:19;;;;;;;8.10;3.00;;;;;;;2.05;100.00;100155.09;6224671;28;20046;-75
2022/11/25 05:40:19;;;;;;;10.55;4.07;;;;;;;1.90;100.00;100152.03;6208131;28;20077;-75
2022/11/25 05:43:20;;;;;;;3.97;2.85;;;;;;;1.91;100.00;100165.72;6224614;28;20045;-75
2022/11/25 05:46:21;;;;;;;4.25;3.13;;;;;;;1.90;100.00;100164.88;6225787;28;20073;-74
2022/11/25 05:49:21;;;;;;;6.00;4.05;;;;;;;1.78;100.00;100175.47;6225729;28;20142;-75
2022/11/25 05:52:22;;;;;;;7.45;3.45;;;;;;;1.69;100.00;100170.50;6225772;28;20050;-76
2022/11/25 05:55:23;;;;;;;6.75;3.72;;;;;;;1.62;100.00;100174.97;6224486;28;20506;-75
2022/11/25 05:58:24;;;;;;;4.78;2.72;;;;;;;1.56;100.00;100175.09;6224447;28;20046;-75
2022/11/25 06:01:25;;;;;;;6.45;3.28;;;;;;;1.55;100.00;100179.41;6225247;28;20105;-75
2022/11/25 06:04:26;;;;;;;3.60;2.55;;;;;;;1.49;100.00;100191.56;6207961;28;20049;-75
2022/11/25 06:07:26;;;;;;;7.15;3.95;;;;;;;1.41;100.00;100200.25;6221516;28;20456;-75
2022/11/25 06:10:27;;;;;;;7.95;3.45;;;;;;;1.46;100.00;100200.16;6221471;28;20057;-75
2022/11/25 06:13:28;;;;;;;5.10;3.63;;;;;;;1.41;100.00;100196.84;6221510;28;20524;-76
2022/11/25 06:16:28;;;;;;;7.65;3.85;;;;;;;1.35;100.00;100196.97;6220141;28;20038;-75
2022/11/25 06:19:29;;;;;;;9.10;4.75;;;;;;;1.43;100.00;100205.38;6220046;28;20101;-76
2022/11/25 06:22:30;;;;;;;8.57;3.25;;;;;;;1.50;100.00;100212.06;6219947;28;20141;-76
2022/11/25 06:25:31;;;;;;;6.03;3.70;;;;;;;1.60;100.00;100218.72;6221293;28;20375;-76
2022/11/25 06:28:35;;;;;;;5.68;3.92;;;;;;;1.71;100.00;100235.63;6220984;28;20520;-74
2022/11/25 06:31:38;;;;;;;8.57;4.03;;;;;;;1.66;100.00;100234.91;6219904;28;20057;-77
2022/11/25 06:34:41;;;;;;;11.52;5.32;;;;;;;1.65;100.00;100235.78;6219801;28;20505;-77
2022/11/25 06:37:42;;;;;;;10.73;3.40;;;;;;;1.58;100.00;100242.78;6219937;28;20094;-74
2022/11/25 06:40:43;;;;;;;9.38;2.97;;;;;;;1.58;100.00;100250.50;6220863;28;20042;-75
2022/11/25 06:43:44;;;;;;;5.55;3.72;;;;;;;1.72;100.00;100243.34;6203787;28;20125;-77
2022/11/25 06:46:44;;;;;;;11.23;4.57;;;;;;;1.80;100.00;100256.03;6219564;28;20065;-77
2022/11/25 06:49:47;;;;;;;6.07;4.65;;;;;;;1.89;100.00;100260.97;6219572;28;20042;-77
2022/11/25 06:52:48;;;;;;;6.93;3.47;;;;;;;1.95;100.00;100263.41;6219514;28;20117;-77
2022/11/25 06:55:49;;;;;;;10.48;5.07;;;;;;;2.05;100.00;100263.22;6220520;28;20094;-78
2022/11/25 06:58:50;;;;;;;13.63;3.63;;;;;;;2.11;100.00;100269.06;6219409;28;20042;-74
2022/11/25 07:01:51;;;;;;;17.17;3.90;;;;;;;2.13;100.00;100276.75;6202708;28;20107;-75
2022/11/25 07:04:52;;;;;;;3.90;2.67;;;;;;;2.31;100.00;100272.91;6219272;28;20279;-77
2022/11/25 07:07:53;;;;;;;5.85;3.35;;;;;;;2.37;100.00;100272.78;6219291;28;20046;-77
2022/11/25 07:10:54;;;;;;;12.68;4.43;;;;;;;2.47;100.00;100281.97;6219228;28;20057;-77
2022/11/25 07:13:58;;;;;;;7.03;3.42;;;;;;;2.54;100.00;100287.81;6220814;28;20045;-77
2022/11/25 07:16:58;;;;;;;6.40;3.85;;;;;;;2.62;100.00;100284.16;6220203;28;20046;-77
2022/11/25 07:19:59;;;;;;;8.77;4.55;;;;;;;2.68;100.00;100288.34;6219052;28;20464;-77
2022/11/25 07:23:00;;;;;;;6.70;3.72;;;;;;;2.78;100.00;100297.53;6218730;28;20042;-75
2022/11/25 07:26:09;;;;;;;3.88;2.25;;;;;;;2.89;100.00;100296.41;6218895;28;20048;-75
2022/11/25 07:29:13;;;;;;;5.65;3.03;;;;;;;2.78;100.00;100305.25;6218837;28;20505;-75
2022/11/25 07:32:14;;;;;;;3.88;2.78;;;;;;;2.81;100.00;100299.16;6218855;28;20099;-75
2022/11/25 07:35:14;;;;;;;4.70;2.65;;;;;;;2.78;100.00;100297.53;6218671;28;20228;-75
2022/11/25 07:38:15;;;;;;;5.50;3.30;;;;;;;2.87;100.00;100298.19;6218534;28;20125;-75
2022/11/25 07:41:24;;;;;;;8.05;3.55;;;;;;;3.00;100.00;100302.97;6218558;28;20112;-75
2022/11/25 07:44:25;;;;;;;3.55;2.85;;;;;;;3.01;100.00;100299.50;6218521;28;20046;-75
2022/11/25 07:47:26;;;;;;;6.63;3.22;;;;;;;2.95;100.00;100302.25;6218489;28;20094;-75
2022/11/25 07:50:28;;;;;;;;;;;;;;;3.06;100.00;100314.84;6219100;28;20046;-75
2022/11/25 07:53:33;;;;;;;2.90;1.77;;;;;;;3.09;100.00;100312.22;6219546;28;20022;-75
2022/11/25 07:56:36;;;;;;;2.92;2.15;;;;;;;3.17;100.00;100317.16;6218285;28;20053;-75
2022/11/25 07:59:40;;;;;;;3.83;2.25;;;;;;;3.27;99.08;100328.06;6218153;28;20269;-75
2022/11/25 08:02:41;;;;;;;4.55;2.67;;;;;;;3.29;94.19;100321.13;6219317;28;20050;-74
2022/11/25 08:05:42;;;;;;;4.95;3.38;;;;;;;3.32;91.69;100345.13;6219447;28;20065;-74
2022/11/25 08:08:43;;;;;;;4.32;2.53;;;;;;;3.30;89.17;100343.47;6201783;28;20121;-75
2022/11/25 08:11:45;;;;;;;7.10;3.40;;;;;;;3.51;93.29;100336.91;6218117;28;20050;-75
2022/11/25 08:14:46;;;;;;;;;;;;;;;3.52;93.97;100341.16;6218367;28;20050;-74
2022/11/25 08:17:51;;;;;;;3.78;2.38;;;;;;;3.57;95.12;100341.88;6218252;28;19944;-76
2022/11/25 08:20:51;;;;;;;6.22;2.97;;;;;;;3.76;95.45;100339.63;6218957;28;20045;-75
2022/11/25 08:23:53;;;;;;;5.68;3.20;;;;;;;3.94;92.41;100343.44;6218991;28;20046;-75
2022/11/25 08:26:57;;;;;;;14.17;5.03;;;;;;;4.05;93.19;100349.13;6217724;28;20498;-75
2022/11/25 08:29:58;;;;;;;8.35;4.38;;;;;;;3.97;93.18;100351.06;6217058;28;20283;-75
2022/11/25 08:32:59;;;;;;;5.90;3.45;;;;;;;3.94;93.46;100359.75;6218921;28;20050;-75
2022/11/25 08:36:00;;;;;;;4.35;2.92;;;;;;;4.14;95.29;100360.91;6217583;28;20046;-75
2022/11/25 08:39:06;;;;;;;7.43;3.97;;;;;;;4.20;96.06;100366.75;6217465;28;20054;-75
2022/11/25 08:42:07;;;;;;;7.88;4.22;;;;;;;4.39;95.71;100369.63;6218626;28;20397;-77
2022/11/25 08:45:09;;;;;;;7.35;3.60;;;;;;;4.58;98.47;100374.22;6218870;28;20121;-77
2022/11/25 08:48:10;;;;;;;7.00;3.60;;;;;;;4.64;97.74;100381.78;6200965;28;20073;-77
2022/11/25 08:51:15;;;;;;;7.20;4.45;;;;;;;4.70;100.00;100383.34;6218812;28;20481;-77
2022/11/25 08:54:16;;;;;;;6.72;3.67;;;;;;;4.81;99.57;100391.59;6218585;28;20406;-77
2022/11/25 08:57:17;;;;;;;9.80;4.47;;;;;;;4.68;100.00;100391.13;6217317;28;20049;-76
2022/11/25 09:00:18;;;;;;;4.35;2.90;;;;;;;4.88;100.00;100393.09;6216958;28;20517;-76
2022/11/25 09:03:19;;;;;;;8.43;3.67;;;;;;;5.11;96.90;100394.94;6217154;28;20486;-75
2022/11/25 09:06:20;;;;;;;7.57;3.90;;;;;;;5.06;98.75;100386.47;6217248;28;20099;-75
2022/11/25 09:09:23;;;;;;;4.85;3.10;;;;;;;4.92;100.00;100399.00;6218651;28;20046;-75
2022/11/25 09:12:24;;;;;;;8.35;4.22;;;;;;;4.89;100.00;100402.53;6200735;28;20493;-76
2022/11/25 09:15:26;;;;;;;6.88;3.38;;;;;;;5.01;100.00;100404.72;6218159;28;20068;-77
2022/11/25 09:18:29;;;;;;;7.10;3.60;;;;;;;5.05;100.00;100397.72;6217118;28;20447;-77
2022/11/25 09:21:29;;;;;;;8.00;4.05;;;;;;;4.92;100.00;100407.63;6217996;28;20049;-76
2022/11/25 09:24:30;;;;;;;7.20;3.80;;;;;;;5.01;98.35;100409.91;6218118;28;20069;-77
2022/11/25 09:27:31;;;;;;;6.63;3.50;;;;;;;4.59;100.00;100399.16;6218002;28;20054;-77
2022/11/25 09:30:32;;;;;;;10.90;4.28;;;;;;;4.83;97.17;100416.50;6216798;28;20049;-77
2022/11/25 09:33:33;;;;;;;7.28;3.75;;;;;;;5.04;98.03;100415.00;6218011;28;20120;-76
2022/11/25 09:36:36;;;;;;;7.72;4.07;;;;;;;5.14;96.69;100414.69;6217852;28;20486;-77
2022/11/25 09:39:37;;;;;;;6.57;4.00;;;;;;;5.20;96.94;100414.47;6217793;28;20044;-76
2022/11/25 09:46:44;;;;;;;7.30;3.88;;;;;;;5.46;96.69;100400.66;6220736;28;20421;-77
2022/11/25 09:50:01;;;;;;;9.25;5.30;;;;;;;5.51;97.73;100411.69;6209274;28;20054;-77
2022/11/25 09:53:43;;;;;;;9.95;4.38;;;;;;;5.51;95.38;100416.03;6221775;28;20391;-77
2022/11/25 09:56:54;;;;;;;5.53;3.75;;;;;;;5.51;95.88;100427.22;6237706;28;20056;-77
2022/11/25 10:00:13;;;;;;;7.82;3.47;;;;;;;5.36;96.42;100426.00;6220550;28;20049;-75
2022/11/25 10:03:42;;;;;;;5.65;3.88;;;;;;;5.27;95.47;100426.28;6220377;28;20046;-76
2022/11/25 10:06:53;;;;;;;10.48;4.55;;;;;;;5.48;97.82;100426.47;6220486;28;20049;-77
2022/11/25 10:09:55;;;;;;;6.38;3.65;;;;;;;5.63;96.65;100420.78;6203876;28;20103;-77
2022/11/25 10:12:58;;;;;;;5.47;3.72;;;;;;;5.79;92.72;100428.88;6221571;28;20046;-77
2022/11/25 10:16:04;;;;;;;7.18;3.05;;;;;;;5.57;94.73;100426.19;6220158;28;20042;-76
2022/11/25 10:19:30;;;;;;;6.63;3.83;;;;;;;5.96;93.66;100412.75;6220278;28;20120;-77
2022/11/25 10:22:34;;;;;;;6.65;3.05;;;;;;;6.35;90.00;100413.03;6220098;28;20046;-77
2022/11/25 10:25:44;;;;;;;7.47;3.78;;;;;;;6.68;88.22;100412.63;6221803;28;20130;-77
2022/11/25 10:28:54;;;;;;;9.05;4.05;;;;;;;7.10;87.97;100405.78;6221257;28;20038;-77
2022/11/25 10:32:11;;;;;;;5.40;3.80;;;;;;;7.23;86.14;100412.19;6221106;28;20113;-75
2022/11/25 10:35:20;;;;;;;7.85;4.45;;;;;;;7.40;86.55;100412.31;6219991;28;20037;-75
2022/11/25 10:38:50;;;;;;;10.68;4.68;;;;;;;7.70;82.33;100405.84;6221143;28;20485;-75
2022/11/25 10:41:55;;;;;;;8.25;4.05;;;;;;;7.85;83.88;100424.22;6220790;28;20552;-75
2022/11/25 10:44:56;;;;;;;7.75;4.35;;;;;;;8.17;79.46;100419.34;6219613;28;20046;-75
2022/11/25 10:48:06;;;;;;;8.18;4.35;;;;;;;8.03;78.86;100419.97;6221105;28;20058;-75
2022/11/25 10:51:33;;;;;;;8.32;4.03;;;;;;;7.60;82.48;100423.63;6220674;28;20136;-75
2022/11/25 10:54:34;;;;;;;5.25;3.00;;;;;;;7.42;82.26;100410.50;6220252;28;20617;-74
2022/11/25 10:57:35;;;;;;;7.43;3.60;;;;;;;7.17;85.65;100415.03;6220570;28;20042;-76
2022/11/25 11:00:37;;;;;;;6.82;3.45;;;;;;;7.01;84.64;100414.78;6202768;28;20136;-77
2022/11/25 11:03:41;;;;;;;7.07;3.83;;;;;;;6.71;87.63;100409.91;6219571;28;20498;-76
2022/11/25 11:06:45;;;;;;;5.85;2.97;;;;;;;6.70;87.91;100410.00;6220566;28;20042;-76
2022/11/25 11:09:47;;;;;;;6.95;3.10;;;;;;;6.40;91.32;100415.44;6220307;28;20043;-76
2022/11/25 11:13:16;;;;;;;7.32;3.25;;;;;;;6.32;89.52;100420.94;6220487;28;20091;-75
2022/11/25 11:16:25;;;;;;;9.43;3.45;;;;;;;6.30;91.07;100412.38;6218931;28;20086;-76
2022/11/25 11:19:29;;;;;;;5.82;3.55;;;;;;;6.22;93.02;100412.66;6219037;28;20042;-78
2022/11/25 11:22:31;;;;;;;4.40;2.95;;;;;;;6.45;88.79;100406.59;6218850;28;20379;-76
2022/11/25 11:25:38;;;;;;;4.10;2.80;;;;;;;6.60;87.50;100404.31;6220172;28;20046;-75
2022/11/25 11:28:40;;;;;;;3.80;2.40;;;;;;;6.92;86.04;100408.25;6218675;28;20046;-75
2022/11/25 11:31:48;;;;;;;4.13;2.95;;;;;;;7.00;85.81;100400.13;6220128;28;20395;-75
2022/11/25 11:35:13;;;;;;;6.47;3.53;;;;;;;7.12;80.75;100410.00;6218840;28;20044;-76
2022/11/25 11:38:17;;;;;;;4.45;2.42;;;;;;;6.95;83.65;100408.09;6220031;28;20072;-75
2022/11/25 11:41:27;;;;;;;6.90;3.05;;;;;;;6.86;81.95;100413.66;6219678;28;20049;-75
2022/11/25 11:44:47;;;;;;;5.68;2.88;;;;;;;6.86;84.80;100413.66;6219856;28;20042;-74
2022/11/25 11:47:51;;;;;;;3.88;2.47;;;;;;;6.88;85.08;100411.00;6218596;28;20107;-75
2022/11/25 11:51:16;;;;;;;6.07;3.13;;;;;;;6.90;85.96;100410.03;6218493;28;20498;-75
2022/11/25 11:54:22;;;;;;;5.70;3.13;;;;;;;6.93;86.38;100409.06;6202163;28;20076;-75
2022/11/25 11:57:33;;;;;;;8.70;3.35;;;;;;;6.68;86.39;100409.22;6218473;28;20490;-74
2022/11/25 12:00:47;;;;;;;6.07;2.55;;;;;;;6.86;85.56;100418.84;6219223;28;20473;-75
2022/11/25 12:04:02;;;;;;;6.35;3.30;;;;;;;6.88;86.22;100419.66;6218897;28;20042;-74
2022/11/25 12:07:12;;;;;;;5.47;3.10;;;;;;;6.91;85.18;100418.66;6218304;28;20083;-76
2022/11/25 12:10:15;;;;;;;5.05;2.35;;;;;;;6.96;83.70;100419.31;6218271;28;20038;-76
2022/11/25 12:13:23;;;;;;;4.45;2.60;;;;;;;6.97;81.42;100410.63;6218196;28;20049;-76
2022/11/25 12:16:30;;;;;;;3.72;2.85;;;;;;;7.07;82.04;100404.16;6219311;28;20478;-76
2022/11/25 12:19:53;;;;;;;4.28;2.83;;;;;;;7.51;80.88;100413.59;6218230;28;20056;-76
2022/11/25 12:23:19;;;;;;;5.15;2.85;;;;;;;7.77;77.88;100408.13;6219101;28;20133;-75
2022/11/25 12:26:27;;;;;;;6.55;2.65;;;;;;;7.88;79.22;100410.25;6237796;28;20054;-74
2022/11/25 12:29:37;;;;;;;6.60;3.00;;;;;;;7.98;80.83;100408.94;6201476;28;20050;-75
2022/11/25 12:32:40;;;;;;;7.57;4.72;;;;;;;7.90;79.49;100410.19;6219039;28;20095;-74
2022/11/25 12:35:50;;;;;;;5.53;3.25;;;;;;;7.89;76.58;100411.94;6201201;28;20062;-75
2022/11/25 12:39:01;;;;;;;7.45;4.20;;;;;;;7.65;78.63;100406.06;6218913;28;20069;-75
2022/11/25 12:42:11;;;;;;;7.22;4.32;;;;;;;7.54;78.88;100395.31;6217551;28;20494;-74
2022/11/25 12:45:20;;;;;;;5.70;3.88;;;;;;;7.61;79.37;100404.50;6217076;28;20042;-75
2022/11/25 12:48:21;;;;;;;8.65;4.38;;;;;;;7.28;80.86;100404.19;6213939;28;20117;-74
2022/11/25 12:51:59;;;;;;;7.05;4.18;;;;;;;7.18;81.22;100398.53;6201059;28;20046;-74
2022/11/25 12:55:09;;;;;;;9.40;4.28;;;;;;;7.15;81.74;100407.28;6217040;28;20041;-74
2022/11/25 12:58:22;;;;;;;6.18;3.83;;;;;;;6.91;83.22;100409.13;6200498;28;20506;-74
2022/11/25 13:01:29;;;;;;;9.82;4.68;;;;;;;6.88;85.06;100411.84;6213533;28;20054;-74
2022/11/25 13:04:58;;;;;;;7.25;3.90;;;;;;;6.79;85.37;100407.03;6199901;28;20124;-75
2022/11/25 13:08:10;;;;;;;8.15;4.38;;;;;;;6.65;87.92;100399.78;6216988;28;20401;-74
2022/11/25 13:11:37;;;;;;;;;;;;;;;6.68;87.51;100404.84;6213610;28;20054;-75
2022/11/25 13:15:03;;;;;;;6.05;2.97;;;;;;;6.59;87.52;100407.78;6295742;28;19921;-75
2022/11/25 13:18:12;;;;;;;6.80;4.05;;;;;;;6.76;85.60;100413.19;6180791;28;20054;-74
2022/11/25 13:21:14;;;;;;;9.15;3.78;;;;;;;6.96;86.05;100417.59;6180616;28;20104;-75
2022/11/25 13:24:33;;;;;;;8.30;4.90;;;;;;;7.04;86.79;100427.63;6198215;28;20049;-75
2022/11/25 13:27:40;;;;;;;7.78;4.35;;;;;;;6.82;87.85;100428.50;6198125;28;20039;-75
2022/11/25 13:30:41;;;;;;;9.25;4.30;;;;;;;6.74;86.15;100427.97;6197974;28;20076;-74
2022/11/25 13:33:42;;;;;;;7.28;4.43;;;;;;;6.63;87.24;100432.69;6180510;28;20050;-75
2022/11/25 13:36:49;;;;;;;8.43;4.93;;;;;;;6.39;88.51;100437.09;6197069;28;20140;-74
2022/11/25 13:40:21;;;;;;;9.98;4.20;;;;;;;6.32;90.64;100439.06;6197933;28;20099;-75
2022/11/25 13:43:25;;;;;;;11.40;5.07;;;;;;;6.23;92.21;100435.06;6180833;28;20050;-75
2022/11/25 13:46:47;;;;;;;13.07;5.78;;;;;;;6.24;92.59;100425.56;6196563;28;20053;-74
2022/11/25 13:49:48;;;;;;;7.45;4.97;;;;;;;6.38;92.85;100435.38;6288690;28;20491;-74
2022/11/25 13:53:02;;;;;;;10.13;6.25;;;;;;;6.33;92.08;100430.38;6180204;28;20095;-74
2022/11/25 13:56:35;;;;;;;9.63;5.40;;;;;;;6.33;93.50;100430.38;6196363;28;20059;-74
2022/11/25 13:59:42;;;;;;;5.63;3.78;;;;;;;6.37;93.55;100429.38;6196261;28;20090;-75
2022/11/25 14:02:44;;;;;;;9.88;5.57;;;;;;;6.31;95.22;100428.75;6196212;28;20069;-75
2022/11/25 14:05:52;;;;;;;;;;;;;;;6.28;96.77;100444.41;6196815;28;20486;-75
2022/11/25 14:09:01;;;;;;;9.95;4.93;;;;;;;6.26;95.52;100441.91;6196286;28;19964;-76
2022/11/25 14:12:04;;;;;;;10.50;5.50;;;;;;;6.17;92.52;100443.06;6196037;28;20054;-75
2022/11/25 14:15:31;;;;;;;10.15;5.32;;;;;;;6.18;91.37;100447.34;6196009;28;20086;-75
2022/11/25 14:18:41;;;;;;;11.35;6.13;;;;;;;6.10;92.30;100453.72;6179838;28;20057;-74
2022/11/25 14:22:08;;;;;;;9.77;5.25;;;;;;;5.99;93.65;100449.75;6197018;28;20051;-75
2022/11/25 14:25:23;;;;;;;16.23;7.88;;;;;;;5.88;94.38;100435.47;6195937;28;20089;-75
2022/11/25 14:28:43;;;;;;;15.48;8.05;;;;;;;5.74;95.68;100443.72;6196112;28;20042;-74
2022/11/25 14:31:49;;;;;;;18.25;6.22;;;;;;;5.69;95.58;100443.03;6196999;28;20084;-75
2022/11/25 14:35:21;;;;;;;17.17;9.05;;;;;;;5.65;95.98;100444.88;6196877;28;20121;-74
2022/11/25 14:38:33;;;;;;;16.33;8.55;;;;;;;5.51;97.36;100447.94;6195566;28;20050;-75